createdAt,value
2017-11-06T00:00:58.784Z,15.97
2017-11-06T00:03:26.244Z,18.20
2017-11-06T00:05:52.932Z,20.13
2017-11-06T00:08:19.617Z,17.60
2017-11-06T00:10:46.290Z,20.90
2017-11-06T00:13:13.685Z,21.17
2017-11-06T00:15:40.346Z,21.43
2017-11-06T00:18:06.977Z,21.93
2017-11-06T00:20:33.842Z,23.83
2017-11-06T00:23:00.495Z,23.97
2017-11-06T00:25:27.161Z,23.40
2017-11-06T00:27:55.017Z,26.60
2017-11-06T00:30:21.764Z,25.50
2017-11-06T00:32:48.424Z,25.80
2017-11-06T00:35:16.441Z,28.53
2017-11-06T00:37:43.215Z,28.37
2017-11-06T00:40:10.518Z,30.40
2017-11-06T00:42:37.171Z,30.07
2017-11-06T00:45:04.375Z,32.43
2017-11-06T00:47:31.071Z,37.20
2017-11-06T00:49:57.707Z,36.60
2017-11-06T00:52:24.363Z,35.63
2017-11-06T00:54:51.118Z,36.37
2017-11-06T00:57:17.761Z,41.77
2017-11-06T00:59:44.429Z,38.80
2017-11-06T01:02:13.340Z,40.73
2017-11-06T01:04:39.955Z,44.00
2017-11-06T01:07:07.001Z,44.17
2017-11-06T01:09:33.658Z,40.27
2017-11-06T01:12:00.413Z,45.90
2017-11-06T01:14:27.084Z,51.13
2017-11-06T01:16:53.723Z,48.47
2017-11-06T01:19:21.110Z,46.47
2017-11-06T01:21:47.782Z,46.17
2017-11-06T01:24:14.443Z,46.07
2017-11-06T01:26:41.371Z,44.90
2017-11-06T01:29:14.986Z,47.97
2017-11-06T01:31:41.624Z,46.70
2017-11-06T01:34:08.280Z,45.43
2017-11-06T01:36:34.927Z,49.00
2017-11-06T01:39:01.576Z,49.87
2017-11-06T01:41:28.952Z,48.03
2017-11-06T01:43:55.654Z,47.70
2017-11-06T01:46:22.287Z,49.50
2017-11-06T01:48:48.992Z,50.37
2017-11-06T01:51:15.686Z,45.40
2017-11-06T01:53:43.083Z,43.50
2017-11-06T01:56:10.460Z,43.10
2017-11-06T01:58:37.129Z,48.13
2017-11-06T02:01:03.772Z,49.93
2017-11-06T02:03:30.404Z,47.23
2017-11-06T02:05:57.238Z,49.00
2017-11-06T02:08:23.873Z,50.57
2017-11-06T02:10:51.180Z,46.43
2017-11-06T02:13:17.856Z,52.60
2017-11-06T02:15:45.233Z,45.87
2017-11-06T02:18:11.866Z,48.37
2017-11-06T02:20:38.587Z,49.30
2017-11-06T02:23:05.239Z,50.40
2017-11-06T02:25:32.739Z,44.50
2017-11-06T02:27:59.427Z,51.77
2017-11-06T02:30:29.127Z,45.47
2017-11-06T02:32:55.882Z,47.50
2017-11-06T02:35:22.600Z,44.57
2017-11-06T02:37:49.256Z,52.03
2017-11-06T02:40:15.894Z,40.37
2017-11-06T02:42:42.607Z,44.20
2017-11-06T02:45:09.259Z,46.10
2017-11-06T02:47:35.892Z,46.43
2017-11-06T02:50:02.589Z,48.17
2017-11-06T02:52:29.995Z,43.03
2017-11-06T02:54:56.645Z,44.73
2017-11-06T02:57:23.330Z,38.53
2017-11-06T02:59:49.958Z,44.00
2017-11-06T03:02:16.656Z,40.27
2017-11-06T03:04:43.341Z,37.57
2017-11-06T03:07:09.983Z,44.93
2017-11-06T03:09:36.611Z,43.57
2017-11-06T03:12:03.272Z,43.83
2017-11-06T03:14:29.937Z,43.00
2017-11-06T03:16:57.310Z,41.67
2017-11-06T03:19:24.100Z,43.20
2017-11-06T03:21:50.781Z,38.47
2017-11-06T03:24:18.172Z,48.40
2017-11-06T03:26:44.837Z,49.73
2017-11-06T03:29:11.470Z,43.97
2017-11-06T03:31:38.469Z,45.23
2017-11-06T03:34:05.883Z,44.03
2017-11-06T03:36:32.489Z,42.30
2017-11-06T03:38:59.883Z,39.60
2017-11-06T03:41:26.558Z,42.30
2017-11-06T03:43:54.138Z,40.43
2017-11-06T03:46:21.501Z,44.70
2017-11-06T03:48:49.723Z,44.40
2017-11-06T03:51:16.370Z,40.60
2017-11-06T03:53:49.978Z,52.33
2017-11-06T03:56:16.605Z,38.20
2017-11-06T03:58:44.104Z,40.63
2017-11-06T04:01:10.752Z,33.90
2017-11-06T04:03:37.394Z,42.03
2017-11-06T04:06:04.746Z,35.03
2017-11-06T04:08:31.406Z,36.93
2017-11-06T04:10:58.019Z,38.30
2017-11-06T04:13:24.646Z,33.73
2017-11-06T04:15:51.294Z,40.50
2017-11-06T04:18:17.930Z,36.50
2017-11-06T04:20:44.559Z,39.40
2017-11-06T04:23:11.297Z,40.03
2017-11-06T04:25:37.929Z,35.10
2017-11-06T04:28:04.702Z,31.50
2017-11-06T04:30:31.498Z,34.37
2017-11-06T04:32:58.922Z,37.70
2017-11-06T04:35:25.606Z,31.30
2017-11-06T04:37:53.038Z,32.03
2017-11-06T04:40:19.683Z,30.77
2017-11-06T04:42:47.265Z,31.77
2017-11-06T04:45:14.673Z,35.87
2017-11-06T04:47:41.344Z,31.10
2017-11-06T04:50:08.023Z,32.93
2017-11-06T04:52:35.539Z,42.30
2017-11-06T04:55:02.175Z,35.40
2017-11-06T04:57:28.812Z,36.10
2017-11-06T04:59:55.471Z,33.33
2017-11-06T05:02:22.095Z,31.90
2017-11-06T05:04:48.752Z,32.70
2017-11-06T05:07:15.443Z,37.77
2017-11-06T05:09:42.220Z,35.60
2017-11-06T05:12:08.860Z,33.73
2017-11-06T05:14:35.529Z,21.90
2017-11-06T05:17:02.163Z,16.87
2017-11-06T05:19:28.795Z,18.10
2017-11-06T05:21:55.477Z,10.53
2017-11-06T05:24:22.127Z,14.13
2017-11-06T05:26:48.766Z,12.67
2017-11-06T05:29:16.145Z,12.67
2017-11-06T05:31:42.760Z,11.30
2017-11-06T05:34:09.410Z,10.17
2017-11-06T05:36:36.866Z,12.23
2017-11-06T05:39:04.291Z,7.80
2017-11-06T05:41:30.970Z,7.87
2017-11-06T05:43:57.606Z,10.43
2017-11-06T05:46:24.258Z,7.30
2017-11-06T05:48:51.640Z,6.17
2017-11-06T05:51:18.310Z,5.57
2017-11-06T05:53:44.944Z,6.87
2017-11-06T05:56:11.596Z,9.70
2017-11-06T05:58:38.280Z,4.60
2017-11-06T06:01:05.678Z,5.07
2017-11-06T06:03:32.319Z,5.30
2017-11-06T06:05:58.994Z,3.70
2017-11-06T06:08:25.655Z,3.50
2017-11-06T06:10:52.296Z,3.30
2017-11-06T06:13:18.989Z,4.03
2017-11-06T06:15:45.651Z,3.30
2017-11-06T06:18:13.180Z,2.90
2017-11-06T06:20:40.600Z,3.23
2017-11-06T06:23:07.222Z,3.97
2017-11-06T06:25:33.912Z,7.90
2017-11-06T06:28:01.340Z,3.40
2017-11-06T06:30:28.053Z,4.60
2017-11-06T06:32:54.724Z,5.90
2017-11-06T06:35:21.364Z,3.43
2017-11-06T06:37:48.024Z,4.07
2017-11-06T06:40:14.673Z,3.50
2017-11-06T06:42:41.392Z,4.87
2017-11-06T06:45:08.094Z,3.27
2017-11-06T06:47:34.735Z,4.30
2017-11-06T06:50:01.377Z,3.23
2017-11-06T06:52:28.029Z,2.93
2017-11-06T06:54:54.728Z,2.90
2017-11-06T06:57:21.996Z,3.10
2017-11-06T06:59:49.403Z,2.70
2017-11-06T07:02:16.080Z,3.10
2017-11-06T07:04:42.743Z,2.47
2017-11-06T07:07:10.137Z,3.97
2017-11-06T07:09:36.801Z,4.00
2017-11-06T07:12:03.478Z,2.97
2017-11-06T07:14:30.157Z,3.70
2017-11-06T07:16:56.806Z,3.37
2017-11-06T07:19:23.527Z,2.23
2017-11-06T07:21:50.170Z,4.03
2017-11-06T07:24:17.566Z,4.60
2017-11-06T07:26:44.226Z,3.30
2017-11-06T07:29:10.937Z,3.97
2017-11-06T07:31:37.561Z,3.03
2017-11-06T07:34:04.232Z,3.10
2017-11-06T07:36:30.870Z,2.80
2017-11-06T07:38:58.487Z,3.60
2017-11-06T07:41:26.234Z,4.30
2017-11-06T07:43:52.863Z,3.13
2017-11-06T07:46:19.512Z,3.40
2017-11-06T07:48:46.154Z,4.97
2017-11-06T07:51:13.154Z,3.50
2017-11-06T07:53:39.822Z,4.67
2017-11-06T07:56:06.541Z,4.00
2017-11-06T07:58:33.213Z,2.90
2017-11-06T08:00:59.835Z,3.63
2017-11-06T08:03:26.506Z,5.00
2017-11-06T08:05:53.870Z,5.10
2017-11-06T08:08:20.498Z,3.70
2017-11-06T08:10:47.151Z,3.67
2017-11-06T08:13:13.790Z,3.30
2017-11-06T08:15:40.426Z,2.63
2017-11-06T08:18:07.068Z,2.20
2017-11-06T08:20:33.723Z,4.37
2017-11-06T08:23:00.371Z,2.50
2017-11-06T08:25:27.902Z,2.00
2017-11-06T08:27:54.534Z,3.60
2017-11-06T08:30:21.937Z,2.57
2017-11-06T08:32:48.642Z,2.37
2017-11-06T08:35:15.318Z,3.23
2017-11-06T08:37:41.967Z,2.90
2017-11-06T08:40:08.639Z,3.00
2017-11-06T08:42:36.007Z,5.47
2017-11-06T08:45:02.698Z,3.40
2017-11-06T08:47:30.296Z,2.33
2017-11-06T08:49:56.954Z,3.20
2017-11-06T08:52:24.395Z,3.53
2017-11-06T08:54:51.043Z,2.23
2017-11-06T08:57:17.684Z,2.20
2017-11-06T08:59:45.097Z,5.77
2017-11-06T09:02:11.754Z,2.07
2017-11-06T09:04:38.387Z,2.90
2017-11-06T09:07:05.002Z,2.70
2017-11-06T09:09:31.667Z,2.63
2017-11-06T09:11:58.315Z,3.63
2017-11-06T09:14:24.949Z,3.83
2017-11-06T09:16:51.603Z,3.13
2017-11-06T09:19:18.238Z,5.13
2017-11-06T09:21:44.867Z,3.87
2017-11-06T09:24:11.639Z,3.30
2017-11-06T09:26:38.258Z,4.77
2017-11-06T09:29:04.924Z,4.73
2017-11-06T09:31:31.602Z,4.13
2017-11-06T09:33:58.967Z,4.90
2017-11-06T09:36:26.340Z,3.97
2017-11-06T09:38:52.994Z,4.00
2017-11-06T09:41:19.606Z,2.93
2017-11-06T09:43:46.983Z,3.13
2017-11-06T09:46:13.740Z,3.20
2017-11-06T09:48:40.399Z,2.80
2017-11-06T09:51:07.059Z,5.13
2017-11-06T09:53:33.732Z,2.70
2017-11-06T09:56:01.103Z,1.70
2017-11-06T09:58:28.823Z,1.43
2017-11-06T10:00:55.468Z,4.73
2017-11-06T10:03:22.137Z,2.57
2017-11-06T10:05:49.550Z,2.40
2017-11-06T10:08:16.261Z,3.30
2017-11-06T10:10:42.903Z,2.13
2017-11-06T10:13:09.540Z,1.70
2017-11-06T10:15:36.326Z,2.07
2017-11-06T10:18:02.972Z,1.50
2017-11-06T10:20:30.338Z,1.97
2017-11-06T10:22:57.020Z,3.77
2017-11-06T10:25:24.414Z,1.60
2017-11-06T10:27:51.043Z,3.93
2017-11-06T10:30:17.722Z,2.10
2017-11-06T10:32:44.395Z,2.67
2017-11-06T10:35:11.018Z,2.93
2017-11-06T10:37:39.774Z,3.17
2017-11-06T10:40:06.445Z,2.90
2017-11-06T10:42:33.075Z,2.60
2017-11-06T10:44:59.755Z,2.07
2017-11-06T10:47:26.469Z,2.80
2017-11-06T10:49:53.179Z,2.90
2017-11-06T10:52:19.886Z,2.33
2017-11-06T10:54:46.542Z,2.90
2017-11-06T10:57:13.961Z,3.00
2017-11-06T10:59:40.673Z,3.13
2017-11-06T11:02:07.307Z,2.53
2017-11-06T11:04:34.011Z,3.37
2017-11-06T11:07:00.702Z,3.70
2017-11-06T11:09:27.356Z,3.30
2017-11-06T11:11:54.021Z,2.67
2017-11-06T11:14:20.699Z,3.00
2017-11-06T11:16:48.187Z,1.43
2017-11-06T11:19:15.741Z,1.00
2017-11-06T11:21:42.408Z,1.50
2017-11-06T11:24:09.082Z,1.10
2017-11-06T11:26:35.849Z,1.07
2017-11-06T11:29:02.514Z,1.00
2017-11-06T11:31:29.161Z,1.90
2017-11-06T11:33:55.876Z,4.07
2017-11-06T11:36:23.306Z,3.93
2017-11-06T11:38:49.966Z,2.40
2017-11-06T11:41:16.647Z,2.80
2017-11-06T11:43:43.295Z,2.20
2017-11-06T11:46:09.939Z,2.57
2017-11-06T11:48:36.586Z,1.13
2017-11-06T11:51:03.350Z,1.30
2017-11-06T11:53:30.045Z,3.20
2017-11-06T11:55:57.440Z,2.07
2017-11-06T11:58:24.114Z,3.30
2017-11-06T12:00:50.862Z,1.23
2017-11-06T12:03:17.532Z,1.47
2017-11-06T12:05:44.938Z,2.17
2017-11-06T12:08:11.614Z,2.17
2017-11-06T12:10:38.361Z,1.50
2017-11-06T12:13:05.036Z,1.63
2017-11-06T12:15:32.090Z,1.30
2017-11-06T12:17:58.797Z,2.30
2017-11-06T12:20:25.509Z,3.23
2017-11-06T12:22:52.132Z,1.97
2017-11-06T12:25:19.258Z,1.93
2017-11-06T12:27:46.683Z,5.57
2017-11-06T12:30:13.391Z,2.97
2017-11-06T12:32:40.021Z,2.03
2017-11-06T12:35:06.687Z,2.07
2017-11-06T12:37:33.318Z,1.60
2017-11-06T12:40:00.020Z,3.70
2017-11-06T12:42:27.558Z,1.70
2017-11-06T12:44:54.229Z,1.70
2017-11-06T12:47:21.634Z,3.40
2017-11-06T12:49:48.287Z,3.30
2017-11-06T12:52:14.926Z,4.43
2017-11-06T12:54:41.847Z,4.40
2017-11-06T12:57:08.569Z,6.13
2017-11-06T12:59:35.995Z,9.07
2017-11-06T13:02:02.674Z,6.40
2017-11-06T13:04:30.143Z,3.93
2017-11-06T13:06:57.602Z,2.63
2017-11-06T13:09:24.971Z,4.73
2017-11-06T13:11:51.655Z,3.57
2017-11-06T13:14:18.311Z,4.37
2017-11-06T13:16:45.851Z,2.80
2017-11-06T13:19:12.531Z,3.93
2017-11-06T13:21:39.188Z,2.93
2017-11-06T13:24:06.583Z,4.67
2017-11-06T13:26:33.265Z,4.50
2017-11-06T13:28:59.902Z,5.23
2017-11-06T13:31:26.534Z,3.50
2017-11-06T13:33:53.191Z,2.80
2017-11-06T13:36:20.080Z,2.87
2017-11-06T13:38:46.730Z,2.30
2017-11-06T13:41:13.562Z,2.80
2017-11-06T13:43:40.204Z,4.27
2017-11-06T13:46:06.834Z,4.00
2017-11-06T13:48:34.235Z,3.37
2017-11-06T13:51:00.864Z,4.60
2017-11-06T13:53:27.648Z,3.57
2017-11-06T13:55:54.331Z,3.37
2017-11-06T13:58:21.732Z,3.10
2017-11-06T14:00:48.400Z,2.87
2017-11-06T14:03:15.113Z,5.73
2017-11-06T14:05:41.736Z,3.27
2017-11-06T14:08:08.412Z,2.93
2017-11-06T14:10:35.095Z,3.27
2017-11-06T14:13:02.498Z,5.30
2017-11-06T14:15:29.147Z,3.20
2017-11-06T14:17:55.841Z,3.20
2017-11-06T14:20:23.227Z,6.20
2017-11-06T14:22:49.951Z,2.83
2017-11-06T14:25:17.378Z,4.37
2017-11-06T14:27:44.011Z,3.73
2017-11-06T14:30:10.707Z,2.40
2017-11-06T14:32:37.384Z,5.83
2017-11-06T14:35:04.040Z,2.97
2017-11-06T14:37:30.737Z,3.90
2017-11-06T14:39:57.407Z,3.37
2017-11-06T14:42:24.033Z,2.73
2017-11-06T14:44:50.709Z,2.07
2017-11-06T14:47:17.358Z,3.00
2017-11-06T14:49:43.999Z,2.87
2017-11-06T14:52:10.666Z,2.23
2017-11-06T14:54:38.123Z,3.03
2017-11-06T14:57:05.599Z,2.50
2017-11-06T14:59:32.958Z,3.40
2017-11-06T15:02:00.476Z,3.00
2017-11-06T15:04:27.142Z,5.27
2017-11-06T15:06:53.819Z,3.10
2017-11-06T15:09:21.432Z,3.10
2017-11-06T15:11:48.188Z,3.70
2017-11-06T15:14:14.889Z,5.40
2017-11-06T15:16:41.654Z,4.00
2017-11-06T15:19:08.326Z,2.13
2017-11-06T15:21:35.012Z,2.70
2017-11-06T15:24:01.826Z,3.10
2017-11-06T15:26:29.254Z,2.83
2017-11-06T15:28:55.931Z,2.70
2017-11-06T15:31:23.335Z,2.30
2017-11-06T15:33:49.962Z,2.53
2017-11-06T15:36:16.584Z,3.30
2017-11-06T15:38:43.972Z,3.70
2017-11-06T15:41:10.642Z,4.63
2017-11-06T15:43:37.313Z,2.20
2017-11-06T15:46:04.010Z,3.30
2017-11-06T15:48:30.662Z,3.63
2017-11-06T15:50:57.290Z,2.50
2017-11-06T15:53:23.964Z,3.40
2017-11-06T15:55:50.623Z,2.47
2017-11-06T15:58:17.250Z,2.27
2017-11-06T16:00:43.908Z,2.93
2017-11-06T16:03:10.610Z,3.20
2017-11-06T16:05:37.270Z,4.20
2017-11-06T16:08:04.007Z,4.70
2017-11-06T16:10:30.648Z,3.90
2017-11-06T16:12:57.326Z,2.93
2017-11-06T16:15:24.769Z,3.73
2017-11-06T16:17:51.408Z,2.25
2017-11-06T16:20:18.095Z,5.00
2017-11-06T16:22:44.782Z,8.47
2017-11-06T16:25:11.435Z,6.87
2017-11-06T16:27:38.086Z,8.53
2017-11-06T16:30:04.764Z,6.37
2017-11-06T16:32:31.414Z,6.30
2017-11-06T16:35:04.916Z,6.50
2017-11-06T16:37:31.586Z,7.40
2017-11-06T16:39:58.291Z,8.00
2017-11-06T16:42:24.993Z,5.50
2017-11-06T16:44:51.625Z,3.60
2017-11-06T16:47:18.280Z,2.60
2017-11-06T16:49:44.977Z,4.13
2017-11-06T16:52:11.651Z,3.87
2017-11-06T16:54:38.314Z,3.57
2017-11-06T16:57:05.023Z,3.33
2017-11-06T16:59:31.824Z,3.97
2017-11-06T17:01:59.308Z,5.30
2017-11-06T17:04:26.010Z,4.43
2017-11-06T17:06:52.690Z,5.00
2017-11-06T17:09:19.482Z,4.93
2017-11-06T17:11:46.325Z,3.80
2017-11-06T17:14:13.007Z,5.93
2017-11-06T17:16:40.430Z,5.50
2017-11-06T17:19:07.115Z,5.90
2017-11-06T17:21:34.556Z,5.73
2017-11-06T17:24:01.212Z,5.20
2017-11-06T17:26:28.656Z,4.63
2017-11-06T17:28:55.338Z,6.70
2017-11-06T17:31:22.021Z,3.40
2017-11-06T17:33:48.711Z,5.27
2017-11-06T17:36:16.123Z,4.13
2017-11-06T17:38:42.783Z,4.80
2017-11-06T17:41:09.442Z,3.93
2017-11-06T17:43:36.831Z,4.30
2017-11-06T17:46:03.506Z,6.27
2017-11-06T17:48:30.211Z,5.67
2017-11-06T17:50:56.852Z,5.60
2017-11-06T17:53:23.543Z,4.22
2017-11-06T17:55:50.263Z,4.10
2017-11-06T17:58:16.966Z,5.00
2017-11-06T18:00:44.448Z,4.23
2017-11-06T18:03:11.175Z,4.80
2017-11-06T18:05:39.451Z,4.03
2017-11-06T18:08:06.871Z,4.87
2017-11-06T18:10:33.548Z,4.40
2017-11-06T18:13:00.974Z,5.50
2017-11-06T18:15:27.678Z,4.90
2017-11-06T18:17:54.373Z,5.12
2017-11-06T18:20:21.150Z,7.05
2017-11-06T18:22:47.809Z,5.23
2017-11-06T18:25:14.522Z,4.80
2017-11-06T18:27:41.900Z,5.55
2017-11-06T18:30:09.388Z,7.03
2017-11-06T18:32:36.113Z,6.50
2017-11-06T18:35:02.809Z,5.63
2017-11-06T18:37:29.478Z,4.82
2017-11-06T18:39:56.924Z,6.47
2017-11-06T18:42:24.515Z,6.22
2017-11-06T18:44:51.216Z,6.40
2017-11-06T18:47:17.884Z,5.47
2017-11-06T18:49:44.554Z,5.17
2017-11-06T18:52:11.207Z,5.90
2017-11-06T18:54:38.859Z,4.93
2017-11-06T18:57:05.493Z,4.53
2017-11-06T18:59:32.910Z,6.20
2017-11-06T19:01:59.611Z,5.80
2017-11-06T19:04:26.297Z,5.00
2017-11-06T19:06:52.984Z,7.03
2017-11-06T19:09:19.658Z,8.52
2017-11-06T19:11:46.309Z,5.17
2017-11-06T19:14:12.995Z,5.22
2017-11-06T19:16:40.462Z,3.83
2017-11-06T19:19:07.860Z,4.53
2017-11-06T19:21:34.650Z,5.00
2017-11-06T19:24:01.437Z,4.97
2017-11-06T19:26:28.974Z,4.80
2017-11-06T19:28:56.366Z,5.12
2017-11-06T19:31:23.746Z,5.30
2017-11-06T19:33:51.151Z,6.33
2017-11-06T19:36:18.570Z,5.13
2017-11-06T19:38:45.238Z,4.60
2017-11-06T19:41:11.933Z,6.15
2017-11-06T19:43:38.597Z,6.93
2017-11-06T19:46:05.343Z,6.53
2017-11-06T19:48:32.004Z,5.10
2017-11-06T19:50:59.590Z,5.67
2017-11-06T19:53:27.015Z,4.63
2017-11-06T19:57:13.274Z,5.50
2017-11-06T20:00:45.834Z,3.80
2017-11-06T20:03:12.288Z,7.07
2017-11-06T20:05:38.765Z,4.43
2017-11-06T20:08:05.318Z,3.40
2017-11-06T20:10:31.781Z,5.27
2017-11-06T20:12:58.226Z,4.10
2017-11-06T20:15:24.708Z,4.17
2017-11-06T20:17:51.556Z,6.85
2017-11-06T20:20:18.038Z,4.75
2017-11-06T20:22:44.519Z,5.30
2017-11-06T20:25:11.720Z,5.77
2017-11-06T20:27:38.194Z,5.55
2017-11-06T20:30:05.523Z,4.17
2017-11-06T20:32:32.016Z,4.17
2017-11-06T20:34:58.460Z,5.10
2017-11-06T20:37:24.998Z,5.80
2017-11-06T20:40:48.908Z,4.82
2017-11-06T20:45:09.963Z,3.90
2017-11-06T20:47:38.638Z,4.80
2017-11-06T20:52:01.447Z,4.05
2017-11-06T20:54:30.072Z,4.40
2017-11-06T21:00:31.708Z,6.00
2017-11-06T21:02:58.359Z,6.10
2017-11-06T21:05:25.011Z,5.37
2017-11-06T21:07:52.479Z,3.73
2017-11-06T21:10:19.862Z,2.80
2017-11-06T21:12:46.525Z,4.67
2017-11-06T21:15:13.194Z,8.67
2017-11-06T21:17:39.859Z,2.93
2017-11-06T21:20:07.251Z,1.90
2017-11-06T21:22:33.984Z,5.03
2017-11-06T21:30:16.484Z,6.17
2017-11-06T21:32:43.131Z,3.87
2017-11-06T21:35:09.768Z,3.97
2017-11-06T21:37:36.471Z,4.17
2017-11-06T21:40:03.104Z,4.20
2017-11-06T21:42:29.807Z,4.80
2017-11-06T21:44:56.546Z,4.63
2017-11-06T21:47:23.176Z,5.40
2017-11-06T21:49:49.874Z,7.53
2017-11-06T21:52:16.637Z,5.60
2017-11-06T21:54:43.306Z,7.10
2017-11-06T21:57:09.992Z,5.90
2017-11-06T21:59:37.455Z,7.00
2017-11-06T22:02:04.927Z,6.57
2017-11-06T22:04:31.606Z,6.97
2017-11-06T22:06:59.082Z,7.70
2017-11-06T22:09:25.766Z,8.17
2017-11-06T22:11:53.223Z,7.37
2017-11-06T22:14:20.652Z,8.37
2017-11-06T22:16:47.335Z,7.10
2017-11-06T22:19:14.024Z,8.88
2017-11-06T22:21:40.775Z,9.00
2017-11-06T22:24:07.459Z,8.33
2017-11-06T22:26:34.163Z,7.57
2017-11-06T22:29:00.871Z,9.02
2017-11-06T22:31:27.528Z,8.77
2017-11-06T22:33:54.222Z,8.10
2017-11-06T22:36:21.695Z,6.80
2017-11-06T22:38:49.103Z,8.97
2017-11-06T22:41:15.778Z,9.60
2017-11-06T22:43:42.493Z,8.80
2017-11-06T22:46:09.220Z,9.93
2017-11-06T22:48:35.904Z,9.35
2017-11-06T22:51:02.610Z,11.90
2017-11-06T22:53:29.327Z,11.80
2017-11-06T22:55:56.053Z,11.60
2017-11-06T22:58:23.600Z,10.97
2017-11-06T23:00:50.296Z,10.05
2017-11-06T23:03:17.035Z,9.20
2017-11-06T23:05:43.751Z,8.50
2017-11-06T23:08:11.138Z,11.20
2017-11-06T23:10:37.886Z,9.20
2017-11-06T23:13:04.578Z,10.35
2017-11-06T23:15:31.248Z,10.77
2017-11-06T23:17:57.947Z,12.37
2017-11-06T23:20:24.678Z,11.95
2017-11-06T23:22:52.076Z,11.85
2017-11-06T23:25:19.475Z,10.73
2017-11-06T23:27:46.148Z,11.60
2017-11-06T23:30:12.794Z,12.90
2017-11-06T23:32:39.494Z,12.80
2017-11-06T23:35:06.199Z,13.97
2017-11-06T23:37:32.942Z,13.07
2017-11-06T23:40:00.424Z,13.43
2017-11-06T23:42:27.125Z,13.97
2017-11-06T23:44:53.816Z,12.20
2017-11-06T23:47:20.544Z,12.10
2017-11-06T23:49:48.028Z,12.00
2017-11-06T23:52:14.750Z,12.83
2017-11-06T23:54:42.285Z,13.03
2017-11-06T23:57:09.000Z,13.27
2017-11-06T23:59:36.495Z,16.47
